sensor_id;sensor_type;location;lat;lon;timestamp;pressure;altitude;pressure_sealevel;temperature;humidity
8292;BME280;4184;42.724;23.308;2022-08-30T00:01:04;95552.59;;;22.10;61.00
8292;BME280;4184;42.724;23.308;2022-08-30T00:03:34;95548.94;;;22.11;60.94
8292;BME280;4184;42.724;23.308;2022-08-30T00:06:02;95550.56;;;22.12;61.02
8292;BME280;4184;42.724;23.308;2022-08-30T00:08:31;95551.78;;;22.09;61.17
8292;BME280;4184;42.724;23.308;2022-08-30T00:10:59;95549.34;;;22.08;61.08
8292;BME280;4184;42.724;23.308;2022-08-30T00:13:27;95553.00;;;22.07;61.37
8292;BME280;4184;42.724;23.308;2022-08-30T00:15:57;95550.56;;;22.05;61.28
8292;BME280;4184;42.724;23.308;2022-08-30T00:18:24;95546.13;;;22.06;61.20
8292;BME280;4184;42.724;23.308;2022-08-30T00:20:52;95547.31;;;22.03;61.36
8292;BME280;4184;42.724;23.308;2022-08-30T00:23:21;95542.41;;;22.00;61.32
8292;BME280;4184;42.724;23.308;2022-08-30T00:25:48;95540.38;;;21.96;61.53
8292;BME280;4184;42.724;23.308;2022-08-30T00:28:16;95541.81;;;21.91;61.61
8292;BME280;4184;42.724;23.308;2022-08-30T00:30:44;95533.09;;;21.91;61.83
8292;BME280;4184;42.724;23.308;2022-08-30T00:33:14;95540.19;;;21.90;61.68
8292;BME280;4184;42.724;23.308;2022-08-30T00:35:42;95546.88;;;21.86;61.74
8292;BME280;4184;42.724;23.308;2022-08-30T00:38:12;95547.25;;;21.83;61.99
8292;BME280;4184;42.724;23.308;2022-08-30T00:40:42;95554.53;;;21.81;61.93
8292;BME280;4184;42.724;23.308;2022-08-30T00:43:14;95559.78;;;21.81;62.15
8292;BME280;4184;42.724;23.308;2022-08-30T00:45:42;95554.94;;;21.78;62.14
8292;BME280;4184;42.724;23.308;2022-08-30T00:48:10;95562.03;;;21.78;62.04
8292;BME280;4184;42.724;23.308;2022-08-30T00:50:42;95557.56;;;21.78;61.97
8292;BME280;4184;42.724;23.308;2022-08-30T00:53:14;95559.38;;;21.78;62.09
8292;BME280;4184;42.724;23.308;2022-08-30T00:55:42;95557.78;;;21.77;61.82
8292;BME280;4184;42.724;23.308;2022-08-30T00:58:13;95553.31;;;21.77;62.10
8292;BME280;4184;42.724;23.308;2022-08-30T01:00:47;95551.69;;;21.76;62.04
8292;BME280;4184;42.724;23.308;2022-08-30T01:03:15;95553.72;;;21.74;62.23
8292;BME280;4184;42.724;23.308;2022-08-30T01:05:44;95555.94;;;21.71;62.23
8292;BME280;4184;42.724;23.308;2022-08-30T01:08:12;95560.41;;;21.70;62.26
8292;BME280;4184;42.724;23.308;2022-08-30T01:10:41;95561.22;;;21.71;62.23
8292;BME280;4184;42.724;23.308;2022-08-30T01:13:10;95550.88;;;21.69;62.12
8292;BME280;4184;42.724;23.308;2022-08-30T01:15:39;95557.75;;;21.70;62.13
8292;BME280;4184;42.724;23.308;2022-08-30T01:18:07;95549.06;;;21.70;62.17
8292;BME280;4184;42.724;23.308;2022-08-30T01:20:42;95552.50;;;21.70;62.02
8292;BME280;4184;42.724;23.308;2022-08-30T01:23:14;95544.59;;;21.70;61.84
8292;BME280;4184;42.724;23.308;2022-08-30T01:25:44;95545.00;;;21.67;62.10
8292;BME280;4184;42.724;23.308;2022-08-30T01:28:16;95543.56;;;21.65;62.11
8292;BME280;4184;42.724;23.308;2022-08-30T01:30:44;95548.00;;;21.64;62.03
8292;BME280;4184;42.724;23.308;2022-08-30T01:33:13;95543.75;;;21.63;62.17
8292;BME280;4184;42.724;23.308;2022-08-30T01:35:47;95546.78;;;21.60;62.30
8292;BME280;4184;42.724;23.308;2022-08-30T01:38:16;95549.63;;;21.58;62.05
8292;BME280;4184;42.724;23.308;2022-08-30T01:40:44;95554.09;;;21.58;61.99
8292;BME280;4184;42.724;23.308;2022-08-30T01:43:13;95545.56;;;21.56;62.22
8292;BME280;4184;42.724;23.308;2022-08-30T01:45:42;95539.09;;;21.52;62.17
8292;BME280;4184;42.724;23.308;2022-08-30T01:48:10;95534.22;;;21.49;62.14
8292;BME280;4184;42.724;23.308;2022-08-30T01:50:39;95530.56;;;21.50;62.24
8292;BME280;4184;42.724;23.308;2022-08-30T01:53:07;95532.59;;;21.48;62.37
8292;BME280;4184;42.724;23.308;2022-08-30T01:55:36;95540.28;;;21.49;62.18
8292;BME280;4184;42.724;23.308;2022-08-30T01:58:04;95537.47;;;21.51;62.31
8292;BME280;4184;42.724;23.308;2022-08-30T02:00:31;95534.84;;;21.51;62.18
8292;BME280;4184;42.724;23.308;2022-08-30T02:02:59;95527.13;;;21.49;62.24
8292;BME280;4184;42.724;23.308;2022-08-30T02:05:26;95526.31;;;21.49;62.21
8292;BME280;4184;42.724;23.308;2022-08-30T02:07:54;95528.53;;;21.45;62.59
8292;BME280;4184;42.724;23.308;2022-08-30T02:10:22;95522.47;;;21.45;62.31
8292;BME280;4184;42.724;23.308;2022-08-30T02:12:51;95519.22;;;21.43;62.40
8292;BME280;4184;42.724;23.308;2022-08-30T02:15:18;95521.25;;;21.41;62.45
8292;BME280;4184;42.724;23.308;2022-08-30T02:17:46;95532.38;;;21.36;62.65
8292;BME280;4184;42.724;23.308;2022-08-30T02:20:14;95529.94;;;21.35;62.66
8292;BME280;4184;42.724;23.308;2022-08-30T02:22:41;95530.94;;;21.34;62.72
8292;BME280;4184;42.724;23.308;2022-08-30T02:25:09;95529.50;;;21.31;62.78
8292;BME280;4184;42.724;23.308;2022-08-30T02:27:37;95531.31;;;21.30;62.84
8292;BME280;4184;42.724;23.308;2022-08-30T02:30:07;95540.22;;;21.29;62.90
8292;BME280;4184;42.724;23.308;2022-08-30T02:32:35;95537.59;;;21.29;62.79
8292;BME280;4184;42.724;23.308;2022-08-30T02:35:03;95528.47;;;21.25;63.11
8292;BME280;4184;42.724;23.308;2022-08-30T02:37:31;95532.13;;;21.24;62.89
8292;BME280;4184;42.724;23.308;2022-08-30T02:39:58;95536.53;;;21.24;62.88
8292;BME280;4184;42.724;23.308;2022-08-30T02:42:26;95533.09;;;21.23;62.92
8292;BME280;4184;42.724;23.308;2022-08-30T02:44:53;95525.59;;;21.20;63.07
8292;BME280;4184;42.724;23.308;2022-08-30T02:47:23;95526.63;;;21.19;63.01
8292;BME280;4184;42.724;23.308;2022-08-30T02:49:51;95536.50;;;21.17;63.13
8292;BME280;4184;42.724;23.308;2022-08-30T02:52:18;95534.88;;;21.16;63.14
8292;BME280;4184;42.724;23.308;2022-08-30T02:54:46;95535.50;;;21.18;63.01
8292;BME280;4184;42.724;23.308;2022-08-30T02:59:40;95534.50;;;21.19;62.97
8292;BME280;4184;42.724;23.308;2022-08-30T03:02:10;95519.72;;;21.18;63.24
8292;BME280;4184;42.724;23.308;2022-08-30T03:04:40;95521.72;;;21.16;63.13
8292;BME280;4184;42.724;23.308;2022-08-30T03:07:09;95520.31;;;21.14;63.19
8292;BME280;4184;42.724;23.308;2022-08-30T03:09:38;95517.88;;;21.12;63.30
8292;BME280;4184;42.724;23.308;2022-08-30T03:12:06;95525.94;;;21.11;63.27
8292;BME280;4184;42.724;23.308;2022-08-30T03:14:35;95525.13;;;21.10;63.34
8292;BME280;4184;42.724;23.308;2022-08-30T03:17:04;95524.53;;;21.08;63.42
8292;BME280;4184;42.724;23.308;2022-08-30T03:19:32;95527.16;;;21.08;63.48
8292;BME280;4184;42.724;23.308;2022-08-30T03:22:03;95530.00;;;21.07;63.34
8292;BME280;4184;42.724;23.308;2022-08-30T03:24:30;95531.81;;;21.06;63.61
8292;BME280;4184;42.724;23.308;2022-08-30T03:26:58;95533.22;;;21.02;63.50
8292;BME280;4184;42.724;23.308;2022-08-30T03:29:26;95537.66;;;21.01;63.83
8292;BME280;4184;42.724;23.308;2022-08-30T03:31:54;95533.22;;;21.02;63.65
8292;BME280;4184;42.724;23.308;2022-08-30T03:34:22;95536.19;;;20.99;63.72
8292;BME280;4184;42.724;23.308;2022-08-30T03:36:51;95537.22;;;20.98;63.79
8292;BME280;4184;42.724;23.308;2022-08-30T03:39:21;95542.84;;;20.95;63.85
8292;BME280;4184;42.724;23.308;2022-08-30T03:41:49;95544.88;;;20.93;63.96
8292;BME280;4184;42.724;23.308;2022-08-30T03:44:17;95541.63;;;20.91;64.06
8292;BME280;4184;42.724;23.308;2022-08-30T03:46:44;95545.28;;;20.90;64.01
8292;BME280;4184;42.724;23.308;2022-08-30T03:49:12;95545.28;;;20.90;63.98
8292;BME280;4184;42.724;23.308;2022-08-30T03:51:40;95540.81;;;20.90;63.86
8292;BME280;4184;42.724;23.308;2022-08-30T03:54:07;95541.63;;;20.91;64.04
8292;BME280;4184;42.724;23.308;2022-08-30T03:56:36;95537.19;;;20.91;64.18
8292;BME280;4184;42.724;23.308;2022-08-30T03:59:04;95538.19;;;20.90;64.12
8292;BME280;4184;42.724;23.308;2022-08-30T04:01:32;95540.41;;;20.87;64.34
8292;BME280;4184;42.724;23.308;2022-08-30T04:03:59;95534.53;;;20.85;64.25
8292;BME280;4184;42.724;23.308;2022-08-30T04:06:27;95531.50;;;20.88;64.37
8292;BME280;4184;42.724;23.308;2022-08-30T04:08:55;95529.91;;;20.87;64.32
8292;BME280;4184;42.724;23.308;2022-08-30T04:11:22;95533.94;;;20.89;64.32
8292;BME280;4184;42.724;23.308;2022-08-30T04:13:51;95540.81;;;20.90;64.46
8292;BME280;4184;42.724;23.308;2022-08-30T04:16:21;95549.31;;;20.92;64.26
8292;BME280;4184;42.724;23.308;2022-08-30T04:18:49;95550.13;;;20.93;64.23
8292;BME280;4184;42.724;23.308;2022-08-30T04:21:16;95550.13;;;20.93;64.21
8292;BME280;4184;42.724;23.308;2022-08-30T04:23:44;95559.03;;;20.92;64.33
8292;BME280;4184;42.724;23.308;2022-08-30T04:26:13;95560.63;;;20.93;64.38
8292;BME280;4184;42.724;23.308;2022-08-30T04:28:41;95565.09;;;20.92;64.35
8292;BME280;4184;42.724;23.308;2022-08-30T04:31:11;95552.56;;;20.94;64.42
8292;BME280;4184;42.724;23.308;2022-08-30T04:33:39;95559.25;;;20.97;64.18
8292;BME280;4184;42.724;23.308;2022-08-30T04:36:08;95557.88;;;21.01;64.44
8292;BME280;4184;42.724;23.308;2022-08-30T04:38:37;95562.72;;;21.04;64.21
8292;BME280;4184;42.724;23.308;2022-08-30T04:41:09;95565.78;;;21.08;63.97
8292;BME280;4184;42.724;23.308;2022-08-30T04:43:37;95563.56;;;21.11;64.07
8292;BME280;4184;42.724;23.308;2022-08-30T04:46:06;95569.44;;;21.13;63.95
8292;BME280;4184;42.724;23.308;2022-08-30T04:48:36;95560.75;;;21.13;64.02
8292;BME280;4184;42.724;23.308;2022-08-30T04:51:05;95563.16;;;21.14;64.18
8292;BME280;4184;42.724;23.308;2022-08-30T04:53:33;95560.78;;;21.19;63.87
8292;BME280;4184;42.724;23.308;2022-08-30T04:56:05;95568.94;;;21.24;63.78
8292;BME280;4184;42.724;23.308;2022-08-30T04:58:33;95578.44;;;21.25;63.56
8292;BME280;4184;42.724;23.308;2022-08-30T05:01:00;95578.25;;;21.27;63.59
8292;BME280;4184;42.724;23.308;2022-08-30T05:03:28;95582.28;;;21.29;63.51
8292;BME280;4184;42.724;23.308;2022-08-30T05:05:57;95577.03;;;21.29;63.56
8292;BME280;4184;42.724;23.308;2022-08-30T05:08:25;95582.69;;;21.33;63.59
8292;BME280;4184;42.724;23.308;2022-08-30T05:10:52;95588.41;;;21.37;63.44
8292;BME280;4184;42.724;23.308;2022-08-30T05:13:20;95593.66;;;21.37;63.35
8292;BME280;4184;42.724;23.308;2022-08-30T05:15:48;95589.22;;;21.37;63.27
8292;BME280;4184;42.724;23.308;2022-08-30T05:18:16;95590.63;;;21.40;63.27
8292;BME280;4184;42.724;23.308;2022-08-30T05:20:43;95592.25;;;21.41;63.20
8292;BME280;4184;42.724;23.308;2022-08-30T05:23:12;95589.22;;;21.44;63.06
8292;BME280;4184;42.724;23.308;2022-08-30T05:25:41;95592.47;;;21.46;62.95
8292;BME280;4184;42.724;23.308;2022-08-30T05:28:09;95592.88;;;21.43;63.01
8292;BME280;4184;42.724;23.308;2022-08-30T05:30:36;95603.78;;;21.40;63.33
8292;BME280;4184;42.724;23.308;2022-08-30T05:33:04;95595.28;;;21.38;63.55
8292;BME280;4184;42.724;23.308;2022-08-30T05:35:32;95595.28;;;21.38;63.32
8292;BME280;4184;42.724;23.308;2022-08-30T05:37:59;95594.91;;;21.41;63.40
8292;BME280;4184;42.724;23.308;2022-08-30T05:40:28;95592.06;;;21.42;63.30
8292;BME280;4184;42.724;23.308;2022-08-30T05:42:55;95593.69;;;21.43;63.05
8292;BME280;4184;42.724;23.308;2022-08-30T05:45:23;95594.09;;;21.47;63.36
8292;BME280;4184;42.724;23.308;2022-08-30T05:47:50;95596.31;;;21.50;63.07
8292;BME280;4184;42.724;23.308;2022-08-30T05:50:18;95596.97;;;21.52;63.14
8292;BME280;4184;42.724;23.308;2022-08-30T05:52:45;95597.38;;;21.55;62.87
8292;BME280;4184;42.724;23.308;2022-08-30T05:55:14;95597.78;;;21.59;62.82
8292;BME280;4184;42.724;23.308;2022-08-30T05:57:45;95590.50;;;21.61;62.60
8292;BME280;4184;42.724;23.308;2022-08-30T06:00:15;95597.00;;;21.65;62.69
8292;BME280;4184;42.724;23.308;2022-08-30T06:02:43;95594.81;;;21.69;62.63
8292;BME280;4184;42.724;23.308;2022-08-30T06:05:11;95590.97;;;21.71;62.42
8292;BME280;4184;42.724;23.308;2022-08-30T06:07:39;95599.47;;;21.73;62.35
8292;BME280;4184;42.724;23.308;2022-08-30T06:10:07;95599.06;;;21.76;62.08
8292;BME280;4184;42.724;23.308;2022-08-30T06:12:35;95591.38;;;21.75;62.17
8292;BME280;4184;42.724;23.308;2022-08-30T06:15:04;95601.09;;;21.74;62.46
8292;BME280;4184;42.724;23.308;2022-08-30T06:17:32;95601.69;;;21.76;62.39
8292;BME280;4184;42.724;23.308;2022-08-30T06:20:00;95599.69;;;21.78;62.54
8292;BME280;4184;42.724;23.308;2022-08-30T06:22:27;95603.94;;;21.79;62.34
8292;BME280;4184;42.724;23.308;2022-08-30T06:24:55;95601.53;;;21.84;62.21
8292;BME280;4184;42.724;23.308;2022-08-30T06:27:22;95607.22;;;21.88;62.23
8292;BME280;4184;42.724;23.308;2022-08-30T06:29:50;95608.03;;;21.95;61.93
8292;BME280;4184;42.724;23.308;2022-08-30T06:32:20;95608.06;;;22.02;61.61
8292;BME280;4184;42.724;23.308;2022-08-30T06:34:47;95612.13;;;22.11;61.46
8292;BME280;4184;42.724;23.308;2022-08-30T06:37:15;95619.22;;;22.17;61.56
8292;BME280;4184;42.724;23.308;2022-08-30T06:39:42;95628.78;;;22.25;61.21
8292;BME280;4184;42.724;23.308;2022-08-30T06:42:10;95619.84;;;22.32;61.08
8292;BME280;4184;42.724;23.308;2022-08-30T06:44:37;95623.34;;;22.39;61.02
8292;BME280;4184;42.724;23.308;2022-08-30T06:47:05;95618.06;;;22.46;60.71
8292;BME280;4184;42.724;23.308;2022-08-30T06:49:34;95621.91;;;22.57;60.39
8292;BME280;4184;42.724;23.308;2022-08-30T06:52:02;95620.69;;;22.66;60.57
8292;BME280;4184;42.724;23.308;2022-08-30T06:54:30;95621.09;;;22.76;60.52
8292;BME280;4184;42.724;23.308;2022-08-30T06:56:58;95627.00;;;22.91;60.14
8292;BME280;4184;42.724;23.308;2022-08-30T06:59:25;95631.25;;;23.05;59.86
8292;BME280;4184;42.724;23.308;2022-08-30T07:01:53;95630.81;;;23.22;59.99
8292;BME280;4184;42.724;23.308;2022-08-30T07:04:21;95625.09;;;23.38;59.17
8292;BME280;4184;42.724;23.308;2022-08-30T07:06:50;95631.53;;;23.55;59.01
8292;BME280;4184;42.724;23.308;2022-08-30T07:09:18;95633.72;;;23.72;58.68
8292;BME280;4184;42.724;23.308;2022-08-30T07:11:45;95624.91;;;23.84;58.87
8292;BME280;4184;42.724;23.308;2022-08-30T07:14:13;95636.06;;;23.93;58.86
8292;BME280;4184;42.724;23.308;2022-08-30T07:16:41;95641.50;;;24.05;58.50
8292;BME280;4184;42.724;23.308;2022-08-30T07:19:09;95641.03;;;24.14;58.22
8292;BME280;4184;42.724;23.308;2022-08-30T07:21:40;95640.78;;;24.22;57.83
8292;BME280;4184;42.724;23.308;2022-08-30T07:24:11;95645.44;;;24.27;57.87
8292;BME280;4184;42.724;23.308;2022-08-30T07:26:42;95634.03;;;24.26;57.83
8292;BME280;4184;42.724;23.308;2022-08-30T07:29:11;95635.28;;;24.24;58.12
8292;BME280;4184;42.724;23.308;2022-08-30T07:31:39;95636.13;;;24.18;58.30
8292;BME280;4184;42.724;23.308;2022-08-30T07:34:07;95639.25;;;24.08;58.46
8292;BME280;4184;42.724;23.308;2022-08-30T07:36:36;95631.38;;;23.95;58.65
8292;BME280;4184;42.724;23.308;2022-08-30T07:39:06;95638.75;;;23.80;59.24
8292;BME280;4184;42.724;23.308;2022-08-30T07:41:37;95642.88;;;23.69;59.30
8292;BME280;4184;42.724;23.308;2022-08-30T07:44:05;95634.97;;;23.62;59.49
8292;BME280;4184;42.724;23.308;2022-08-30T07:46:33;95633.78;;;23.58;59.93
8292;BME280;4184;42.724;23.308;2022-08-30T07:49:00;95635.59;;;23.58;59.65
8292;BME280;4184;42.724;23.308;2022-08-30T07:51:28;95636.41;;;23.58;59.85
8292;BME280;4184;42.724;23.308;2022-08-30T07:53:56;95636.00;;;23.61;59.94
8292;BME280;4184;42.724;23.308;2022-08-30T07:56:24;95641.22;;;23.68;59.48
8292;BME280;4184;42.724;23.308;2022-08-30T07:58:53;95639.59;;;23.74;59.59
8292;BME280;4184;42.724;23.308;2022-08-30T08:01:22;95644.63;;;23.82;59.16
8292;BME280;4184;42.724;23.308;2022-08-30T08:03:50;95641.94;;;23.95;58.93
8292;BME280;4184;42.724;23.308;2022-08-30T08:06:19;95643.44;;;24.22;58.30
8292;BME280;4184;42.724;23.308;2022-08-30T08:08:48;95639.47;;;24.95;57.35
8292;BME280;4184;42.724;23.308;2022-08-30T08:11:19;95645.41;;;25.52;55.87
8292;BME280;4184;42.724;23.308;2022-08-30T08:13:48;95646.53;;;25.81;55.05
8292;BME280;4184;42.724;23.308;2022-08-30T08:16:18;95644.47;;;26.31;54.07
8292;BME280;4184;42.724;23.308;2022-08-30T08:18:47;95639.59;;;26.28;53.93
8292;BME280;4184;42.724;23.308;2022-08-30T08:21:14;95640.69;;;26.08;54.45
8292;BME280;4184;42.724;23.308;2022-08-30T08:23:42;95643.50;;;25.95;54.55
8292;BME280;4184;42.724;23.308;2022-08-30T08:26:09;95636.09;;;25.86;54.94
8292;BME280;4184;42.724;23.308;2022-08-30T08:29:01;95640.31;;;25.75;55.26
8292;BME280;4184;42.724;23.308;2022-08-30T08:31:30;95640.66;;;25.60;55.41
8292;BME280;4184;42.724;23.308;2022-08-30T08:33:58;95640.75;;;25.54;55.75
8292;BME280;4184;42.724;23.308;2022-08-30T08:36:26;95639.41;;;25.44;56.13
8292;BME280;4184;42.724;23.308;2022-08-30T08:38:55;95642.53;;;25.35;56.26
8292;BME280;4184;42.724;23.308;2022-08-30T08:41:31;95644.25;;;25.29;56.55
8292;BME280;4184;42.724;23.308;2022-08-30T08:44:07;95642.63;;;25.28;56.77
8292;BME280;4184;42.724;23.308;2022-08-30T08:46:47;95634.31;;;25.25;56.66
8292;BME280;4184;42.724;23.308;2022-08-30T08:49:18;95641.94;;;25.14;56.43
8292;BME280;4184;42.724;23.308;2022-08-30T08:51:46;95642.00;;;25.08;57.00
8292;BME280;4184;42.724;23.308;2022-08-30T08:54:35;95641.88;;;25.03;57.26
8292;BME280;4184;42.724;23.308;2022-08-30T08:57:06;95637.84;;;24.94;57.40
8292;BME280;4184;42.724;23.308;2022-08-30T08:59:33;95641.38;;;24.87;57.81
8292;BME280;4184;42.724;23.308;2022-08-30T09:02:10;95646.69;;;24.81;57.89
8292;BME280;4184;42.724;23.308;2022-08-30T09:04:45;95645.13;;;24.73;58.17
8292;BME280;4184;42.724;23.308;2022-08-30T09:07:21;95654.53;;;24.69;58.29
8292;BME280;4184;42.724;23.308;2022-08-30T09:09:49;95655.75;;;24.67;58.09
8292;BME280;4184;42.724;23.308;2022-08-30T09:12:17;95646.84;;;24.61;58.46
8292;BME280;4184;42.724;23.308;2022-08-30T09:14:49;95645.66;;;24.57;58.68
8292;BME280;4184;42.724;23.308;2022-08-30T09:17:21;95645.66;;;24.57;58.78
8292;BME280;4184;42.724;23.308;2022-08-30T09:19:58;95653.59;;;24.57;58.91
8292;BME280;4184;42.724;23.308;2022-08-30T09:22:31;95643.03;;;24.57;58.93
8292;BME280;4184;42.724;23.308;2022-08-30T09:25:03;95645.66;;;24.57;58.89
8292;BME280;4184;42.724;23.308;2022-08-30T09:27:33;95644.47;;;24.53;58.65
8292;BME280;4184;42.724;23.308;2022-08-30T09:30:05;95653.84;;;24.49;59.22
8292;BME280;4184;42.724;23.308;2022-08-30T09:32:38;95650.59;;;24.47;59.32
8292;BME280;4184;42.724;23.308;2022-08-30T09:35:11;95651.41;;;24.47;59.48
8292;BME280;4184;42.724;23.308;2022-08-30T09:37:45;95648.56;;;24.49;59.25
8292;BME280;4184;42.724;23.308;2022-08-30T09:40:23;95636.75;;;24.51;59.26
8292;BME280;4184;42.724;23.308;2022-08-30T09:43:04;95641.22;;;24.51;59.18
8292;BME280;4184;42.724;23.308;2022-08-30T09:45:34;95635.53;;;24.54;58.83
8292;BME280;4184;42.724;23.308;2022-08-30T09:48:30;95635.09;;;24.57;58.77
8292;BME280;4184;42.724;23.308;2022-08-30T09:51:15;95644.63;;;24.58;58.68
8292;BME280;4184;42.724;23.308;2022-08-30T09:53:54;95629.81;;;24.57;58.49
8292;BME280;4184;42.724;23.308;2022-08-30T09:56:30;95637.56;;;24.52;58.79
8292;BME280;4184;42.724;23.308;2022-08-30T09:59:10;95633.50;;;24.49;59.27
8292;BME280;4184;42.724;23.308;2022-08-30T10:01:45;95636.75;;;24.51;59.29
8292;BME280;4184;42.724;23.308;2022-08-30T10:04:37;95631.84;;;24.55;58.68
8292;BME280;4184;42.724;23.308;2022-08-30T10:07:12;95628.78;;;24.58;58.80
8292;BME280;4184;42.724;23.308;2022-08-30T10:09:49;95623.22;;;24.66;58.74
8292;BME280;4184;42.724;23.308;2022-08-30T10:12:31;95620.31;;;24.74;58.46
8292;BME280;4184;42.724;23.308;2022-08-30T10:15:07;95625.91;;;24.84;58.42
8292;BME280;4184;42.724;23.308;2022-08-30T10:17:43;95615.50;;;24.89;57.71
8292;BME280;4184;42.724;23.308;2022-08-30T10:20:25;95618.88;;;24.97;57.74
8292;BME280;4184;42.724;23.308;2022-08-30T10:22:59;95620.84;;;25.08;57.19
8292;BME280;4184;42.724;23.308;2022-08-30T10:25:34;95606.88;;;25.19;57.46
8292;BME280;4184;42.724;23.308;2022-08-30T10:28:08;95606.59;;;25.27;56.93
8292;BME280;4184;42.724;23.308;2022-08-30T10:30:43;95598.34;;;25.35;56.65
8292;BME280;4184;42.724;23.308;2022-08-30T10:33:15;95591.22;;;25.36;56.72
8292;BME280;4184;42.724;23.308;2022-08-30T10:35:47;95593.81;;;25.42;56.95
8292;BME280;4184;42.724;23.308;2022-08-30T10:38:21;95596.53;;;25.54;56.49
8292;BME280;4184;42.724;23.308;2022-08-30T10:40:55;95601.44;;;25.69;56.01
8292;BME280;4184;42.724;23.308;2022-08-30T10:43:48;95587.81;;;25.84;55.71
8292;BME280;4184;42.724;23.308;2022-08-30T10:46:24;95584.41;;;25.95;55.45
8292;BME280;4184;42.724;23.308;2022-08-30T10:48:54;95589.78;;;26.06;55.15
8292;BME280;4184;42.724;23.308;2022-08-30T10:51:26;95579.19;;;26.18;54.94
8292;BME280;4184;42.724;23.308;2022-08-30T10:53:58;95581.88;;;26.30;54.53
8292;BME280;4184;42.724;23.308;2022-08-30T10:56:28;95580.97;;;26.36;54.35
8292;BME280;4184;42.724;23.308;2022-08-30T10:58:57;95574.78;;;26.42;54.36
8292;BME280;4184;42.724;23.308;2022-08-30T11:01:52;95573.97;;;26.53;53.70
8292;BME280;4184;42.724;23.308;2022-08-30T11:04:47;95573.19;;;26.64;53.38
8292;BME280;4184;42.724;23.308;2022-08-30T11:07:30;95573.53;;;26.80;53.15
8292;BME280;4184;42.724;23.308;2022-08-30T11:10:21;95563.28;;;26.95;53.00
8292;BME280;4184;42.724;23.308;2022-08-30T11:12:58;95563.06;;;27.08;52.75
8292;BME280;4184;42.724;23.308;2022-08-30T11:15:29;95560.53;;;27.13;52.37
8292;BME280;4184;42.724;23.308;2022-08-30T11:18:00;95559.56;;;27.19;52.35
8292;BME280;4184;42.724;23.308;2022-08-30T11:20:36;95556.00;;;27.25;51.91
8292;BME280;4184;42.724;23.308;2022-08-30T11:23:28;95562.13;;;27.26;51.83
8292;BME280;4184;42.724;23.308;2022-08-30T11:25:59;95560.28;;;27.26;52.20
8292;BME280;4184;42.724;23.308;2022-08-30T11:28:59;95560.28;;;27.26;52.05
8292;BME280;4184;42.724;23.308;2022-08-30T11:31:39;95552.72;;;27.35;51.63
8292;BME280;4184;42.724;23.308;2022-08-30T11:34:07;95544.09;;;27.40;51.45
8292;BME280;4184;42.724;23.308;2022-08-30T11:37:00;95538.31;;;27.43;51.57
8292;BME280;4184;42.724;23.308;2022-08-30T11:42:32;95543.50;;;27.38;51.72
8292;BME280;4184;42.724;23.308;2022-08-30T11:48:06;95540.09;;;27.54;51.42
8292;BME280;4184;42.724;23.308;2022-08-30T11:50:40;95542.88;;;27.59;50.92
8292;BME280;4184;42.724;23.308;2022-08-30T11:53:20;95542.88;;;27.59;50.84
8292;BME280;4184;42.724;23.308;2022-08-30T11:55:59;95524.84;;;27.61;50.54
8292;BME280;4184;42.724;23.308;2022-08-30T11:58:44;95523.91;;;27.67;50.96
8292;BME280;4184;42.724;23.308;2022-08-30T12:01:21;95522.97;;;27.73;50.69
8292;BME280;4184;42.724;23.308;2022-08-30T12:04:03;95525.41;;;27.75;50.46
8292;BME280;4184;42.724;23.308;2022-08-30T12:06:53;95523.44;;;27.70;50.48
8292;BME280;4184;42.724;23.308;2022-08-30T12:12:55;95507.03;;;27.73;50.32
8292;BME280;4184;42.724;23.308;2022-08-30T12:15:52;95504.16;;;27.75;49.62
8292;BME280;4184;42.724;23.308;2022-08-30T12:18:29;95496.00;;;27.81;50.02
8292;BME280;4184;42.724;23.308;2022-08-30T12:21:02;95501.31;;;27.81;49.51
8292;BME280;4184;42.724;23.308;2022-08-30T12:23:38;95496.25;;;27.80;49.48
8292;BME280;4184;42.724;23.308;2022-08-30T12:26:13;95496.41;;;27.73;49.27
8292;BME280;4184;42.724;23.308;2022-08-30T12:28:41;95490.44;;;27.66;49.28
8292;BME280;4184;42.724;23.308;2022-08-30T12:31:15;95483.88;;;27.57;49.28
8292;BME280;4184;42.724;23.308;2022-08-30T12:33:47;95483.75;;;27.52;49.45
8292;BME280;4184;42.724;23.308;2022-08-30T12:36:31;95481.00;;;27.47;49.51
8292;BME280;4184;42.724;23.308;2022-08-30T12:39:15;95477.78;;;27.45;49.31
8292;BME280;4184;42.724;23.308;2022-08-30T12:41:45;95477.78;;;27.45;49.03
8292;BME280;4184;42.724;23.308;2022-08-30T12:44:15;95471.09;;;27.42;48.62
8292;BME280;4184;42.724;23.308;2022-08-30T12:46:49;95465.00;;;27.42;48.72
8292;BME280;4184;42.724;23.308;2022-08-30T12:49:19;95458.63;;;27.43;48.79
8292;BME280;4184;42.724;23.308;2022-08-30T12:51:49;95466.03;;;27.41;48.28
8292;BME280;4184;42.724;23.308;2022-08-30T12:54:19;95465.34;;;27.34;48.48
8292;BME280;4184;42.724;23.308;2022-08-30T12:56:53;95459.41;;;27.26;48.66
8292;BME280;4184;42.724;23.308;2022-08-30T12:59:54;95461.13;;;27.21;48.69
8292;BME280;4184;42.724;23.308;2022-08-30T13:02:26;95462.06;;;27.15;48.92
8292;BME280;4184;42.724;23.308;2022-08-30T13:04:55;95470.19;;;27.08;48.59
8292;BME280;4184;42.724;23.308;2022-08-30T13:07:27;95456.78;;;27.03;48.76
8292;BME280;4184;42.724;23.308;2022-08-30T13:10:14;95458.28;;;26.99;48.79
8292;BME280;4184;42.724;23.308;2022-08-30T13:12:59;95466.72;;;26.96;49.00
8292;BME280;4184;42.724;23.308;2022-08-30T13:15:32;95465.56;;;26.92;49.03
8292;BME280;4184;42.724;23.308;2022-08-30T13:18:23;95460.03;;;26.93;48.77
8292;BME280;4184;42.724;23.308;2022-08-30T13:21:18;95466.47;;;26.97;48.65
8292;BME280;4184;42.724;23.308;2022-08-30T13:23:47;95455.63;;;26.99;48.49
8292;BME280;4184;42.724;23.308;2022-08-30T13:26:15;95454.13;;;27.03;48.63
8292;BME280;4184;42.724;23.308;2022-08-30T13:28:44;95451.69;;;27.13;48.19
8292;BME280;4184;42.724;23.308;2022-08-30T13:31:12;95442.78;;;27.19;48.02
8292;BME280;4184;42.724;23.308;2022-08-30T13:33:41;95437.03;;;27.22;48.21
8292;BME280;4184;42.724;23.308;2022-08-30T13:36:11;95446.34;;;27.25;48.18
8292;BME280;4184;42.724;23.308;2022-08-30T13:38:40;95446.03;;;27.21;48.05
8292;BME280;4184;42.724;23.308;2022-08-30T13:41:07;95437.47;;;27.19;48.22
8292;BME280;4184;42.724;23.308;2022-08-30T13:43:35;95439.56;;;27.17;48.05